createdAt,value
2018-09-28T00:02:02.776Z,5.70
2018-09-28T00:04:30.554Z,4.60
2018-09-28T00:06:58.406Z,4.57
2018-09-28T00:09:26.227Z,5.20
2018-09-28T00:11:54.055Z,4.90
2018-09-28T00:14:21.839Z,4.90
2018-09-28T00:16:49.549Z,3.20
2018-09-28T00:19:17.308Z,3.07
2018-09-28T00:21:45.172Z,4.17
2018-09-28T00:24:12.915Z,2.87
2018-09-28T00:26:40.633Z,3.20
2018-09-28T00:29:08.406Z,3.00
2018-09-28T00:31:36.148Z,2.20
2018-09-28T00:34:03.886Z,2.23
2018-09-28T00:36:31.707Z,2.43
2018-09-28T00:38:59.447Z,2.40
2018-09-28T00:41:27.272Z,2.90
2018-09-28T00:43:55.092Z,3.43
2018-09-28T00:46:22.820Z,3.53
2018-09-28T00:48:50.600Z,4.17
2018-09-28T00:51:18.555Z,2.80
2018-09-28T00:53:46.250Z,2.27
2018-09-28T00:56:13.991Z,3.67
2018-09-28T00:58:41.777Z,4.17
2018-09-28T01:01:09.548Z,4.17
2018-09-28T01:03:37.241Z,5.70
2018-09-28T01:06:04.990Z,7.43
2018-09-28T01:08:32.812Z,5.93
2018-09-28T01:11:00.588Z,10.23
2018-09-28T01:13:28.366Z,4.80
2018-09-28T01:15:56.160Z,4.30
2018-09-28T01:18:23.966Z,4.93
2018-09-28T01:20:51.742Z,4.67
2018-09-28T01:23:19.572Z,6.23
2018-09-28T01:25:47.302Z,15.17
2018-09-28T01:28:15.117Z,11.83
2018-09-28T01:30:42.866Z,11.27
2018-09-28T01:33:10.526Z,9.93
2018-09-28T01:35:38.299Z,11.70
2018-09-28T01:38:06.004Z,8.07
2018-09-28T01:40:33.757Z,11.97
2018-09-28T01:43:01.540Z,14.40
2018-09-28T01:45:29.298Z,13.30
2018-09-28T01:47:57.053Z,10.37
2018-09-28T01:50:24.839Z,10.57
2018-09-28T01:52:52.659Z,8.33
2018-09-28T01:55:20.430Z,8.50
2018-09-28T01:57:48.214Z,9.70
2018-09-28T02:00:16.057Z,8.47
2018-09-28T02:02:43.802Z,9.23
2018-09-28T02:05:11.632Z,7.50
2018-09-28T02:07:39.315Z,3.17
2018-09-28T02:10:07.091Z,2.87
2018-09-28T02:12:34.897Z,5.97
2018-09-28T02:15:02.660Z,2.53
2018-09-28T02:17:30.387Z,4.70
2018-09-28T02:19:58.577Z,3.37
2018-09-28T02:22:26.335Z,7.13
2018-09-28T02:24:54.050Z,4.97
2018-09-28T02:27:21.856Z,6.37
2018-09-28T02:29:49.644Z,5.43
2018-09-28T02:32:17.354Z,6.73
2018-09-28T02:34:45.091Z,2.73
2018-09-28T02:37:12.940Z,4.40
2018-09-28T02:39:40.676Z,4.43
2018-09-28T02:42:08.452Z,3.67
2018-09-28T02:44:36.278Z,4.77
2018-09-28T02:47:04.115Z,3.37
2018-09-28T02:49:31.909Z,3.43
2018-09-28T02:51:59.630Z,2.50
2018-09-28T02:54:27.359Z,3.87
2018-09-28T02:56:55.229Z,3.30
2018-09-28T02:59:22.951Z,3.47
2018-09-28T03:01:50.705Z,3.60
2018-09-28T03:04:18.455Z,3.20
2018-09-28T03:06:46.207Z,4.83
2018-09-28T03:09:13.919Z,2.50
2018-09-28T03:11:41.765Z,2.10
2018-09-28T03:14:09.533Z,2.40
2018-09-28T03:16:37.314Z,4.40
2018-09-28T03:19:05.153Z,5.10
2018-09-28T03:21:32.905Z,2.97
2018-09-28T03:24:00.922Z,2.97
2018-09-28T03:26:28.700Z,5.13
2018-09-28T03:28:56.446Z,2.73
2018-09-28T03:31:24.235Z,5.00
2018-09-28T03:33:52.011Z,6.07
2018-09-28T03:36:19.753Z,4.67
2018-09-28T03:38:47.505Z,2.73
2018-09-28T03:41:15.323Z,3.73
2018-09-28T03:43:43.081Z,2.60
2018-09-28T03:46:10.884Z,3.40
2018-09-28T03:48:38.815Z,3.23
2018-09-28T03:51:06.609Z,4.60
2018-09-28T03:53:34.391Z,6.20
2018-09-28T03:56:02.172Z,5.50
2018-09-28T03:58:29.891Z,5.00
2018-09-28T04:00:57.631Z,7.33
2018-09-28T04:03:25.365Z,6.73
2018-09-28T04:05:53.071Z,9.17
2018-09-28T04:08:20.852Z,7.37
2018-09-28T04:10:48.664Z,7.57
2018-09-28T04:13:16.344Z,5.63
2018-09-28T04:15:44.072Z,5.17
2018-09-28T04:18:11.818Z,9.13
2018-09-28T04:20:39.616Z,6.37
2018-09-28T04:23:07.444Z,7.23
2018-09-28T04:25:35.332Z,11.17
2018-09-28T04:28:03.144Z,13.20
2018-09-28T04:30:30.891Z,16.90
2018-09-28T04:32:58.785Z,17.10
2018-09-28T04:35:26.535Z,19.53
2018-09-28T04:37:54.265Z,11.80
2018-09-28T04:40:22.058Z,12.07
2018-09-28T04:42:49.772Z,9.33
2018-09-28T04:45:17.486Z,14.77
2018-09-28T04:47:45.304Z,14.77
2018-09-28T04:50:13.121Z,13.97
2018-09-28T04:52:40.838Z,11.30
2018-09-28T04:55:08.625Z,11.07
2018-09-28T04:57:36.512Z,12.43
2018-09-28T05:00:04.537Z,14.83
2018-09-28T05:02:32.343Z,14.57
2018-09-28T05:05:00.052Z,11.37
2018-09-28T05:07:27.839Z,11.53
2018-09-28T05:09:55.656Z,11.03
2018-09-28T05:12:23.480Z,11.57
2018-09-28T05:14:51.272Z,12.67
2018-09-28T05:17:19.063Z,11.83
2018-09-28T05:19:46.779Z,11.70
2018-09-28T05:22:14.533Z,11.30
2018-09-28T05:24:42.356Z,11.87
2018-09-28T05:27:10.026Z,9.87
2018-09-28T05:29:37.779Z,9.10
2018-09-28T05:32:05.751Z,8.03
2018-09-28T05:34:33.498Z,7.37
2018-09-28T05:37:01.223Z,9.53
2018-09-28T05:39:29.100Z,7.13
2018-09-28T05:41:56.795Z,9.73
2018-09-28T05:44:24.482Z,9.63
2018-09-28T05:46:52.356Z,11.60
2018-09-28T05:49:20.221Z,12.60
2018-09-28T05:51:47.931Z,11.73
2018-09-28T05:54:15.755Z,10.10
2018-09-28T05:56:43.614Z,8.63
2018-09-28T05:59:16.829Z,6.10
2018-09-28T06:01:50.023Z,9.13
2018-09-28T06:04:23.194Z,6.47
2018-09-28T06:06:50.995Z,6.27
2018-09-28T06:09:18.706Z,7.77
2018-09-28T06:11:46.549Z,7.77
2018-09-28T06:14:14.388Z,8.63
2018-09-28T06:16:42.139Z,10.77
2018-09-28T06:19:09.926Z,9.13
2018-09-28T06:21:37.691Z,11.47
2018-09-28T06:24:05.660Z,5.73
2018-09-28T06:26:33.630Z,7.30
2018-09-28T06:29:01.439Z,7.10
2018-09-28T06:31:29.258Z,7.43
2018-09-28T06:33:57.099Z,8.47
2018-09-28T06:36:24.868Z,9.93
2018-09-28T06:38:52.630Z,7.87
2018-09-28T06:41:20.400Z,8.40
2018-09-28T06:43:48.104Z,8.37
2018-09-28T06:46:15.803Z,8.03
2018-09-28T06:48:43.739Z,8.37
2018-09-28T06:51:11.610Z,9.33
2018-09-28T06:53:39.308Z,6.67
2018-09-28T06:56:07.138Z,6.63
2018-09-28T06:58:34.853Z,9.77
2018-09-28T07:01:02.563Z,8.60
2018-09-28T07:03:30.389Z,7.90
2018-09-28T07:05:58.215Z,7.03
2018-09-28T07:08:25.930Z,9.83
2018-09-28T07:10:53.887Z,8.93
2018-09-28T07:13:21.637Z,7.63
2018-09-28T07:15:49.468Z,8.57
2018-09-28T07:18:17.338Z,5.73
2018-09-28T07:20:45.105Z,6.67
2018-09-28T07:23:12.863Z,7.80
2018-09-28T07:25:40.651Z,6.47
2018-09-28T07:28:08.436Z,9.10
2018-09-28T07:30:36.179Z,5.27
2018-09-28T07:33:04.003Z,8.17
2018-09-28T07:35:31.693Z,6.20
2018-09-28T07:37:59.444Z,7.87
2018-09-28T07:40:27.162Z,8.70
2018-09-28T07:42:55.008Z,5.67
2018-09-28T07:45:22.803Z,6.57
2018-09-28T07:47:50.678Z,5.53
2018-09-28T07:50:18.422Z,7.53
2018-09-28T07:52:46.206Z,7.93
2018-09-28T07:55:13.993Z,5.33
2018-09-28T07:57:41.743Z,5.60
2018-09-28T08:00:09.537Z,5.83
2018-09-28T08:02:37.393Z,5.10
2018-09-28T08:05:05.405Z,6.30
2018-09-28T08:07:33.179Z,6.33
2018-09-28T08:10:01.032Z,7.90
2018-09-28T08:12:28.768Z,6.40
2018-09-28T08:14:56.862Z,5.93
2018-09-28T08:17:24.637Z,7.53
2018-09-28T08:19:52.431Z,9.13
2018-09-28T08:22:20.234Z,8.17
2018-09-28T08:24:48.196Z,5.40
2018-09-28T08:27:15.923Z,7.90
2018-09-28T08:29:43.723Z,7.57
2018-09-28T08:32:11.521Z,8.00
2018-09-28T08:34:39.305Z,8.47
2018-09-28T08:37:07.097Z,9.43
2018-09-28T08:39:34.922Z,8.23
2018-09-28T08:42:02.719Z,6.37
2018-09-28T08:44:30.534Z,9.67
2018-09-28T08:46:58.392Z,6.97
2018-09-28T08:49:26.189Z,6.70
2018-09-28T08:51:53.913Z,7.83
2018-09-28T08:54:21.752Z,5.20
2018-09-28T08:56:49.560Z,5.83
2018-09-28T08:59:17.394Z,9.37
2018-09-28T09:01:45.233Z,6.60
2018-09-28T09:04:12.966Z,5.80
2018-09-28T09:06:40.829Z,7.90
2018-09-28T09:09:11.136Z,11.50
2018-09-28T09:11:38.934Z,6.63
2018-09-28T09:14:06.774Z,7.63
2018-09-28T09:16:34.593Z,7.90
2018-09-28T09:19:02.559Z,8.93
2018-09-28T09:21:30.409Z,6.80
2018-09-28T09:23:58.328Z,6.03
2018-09-28T09:26:26.042Z,8.30
2018-09-28T09:28:53.947Z,6.30
2018-09-28T09:31:21.864Z,7.33
2018-09-28T09:33:49.620Z,5.90
2018-09-28T09:36:17.394Z,7.67
2018-09-28T09:38:45.197Z,8.33
2018-09-28T09:41:12.929Z,5.70
2018-09-28T09:43:40.649Z,5.60
2018-09-28T09:46:08.645Z,8.37
2018-09-28T09:48:36.448Z,5.97
2018-09-28T09:51:04.194Z,5.43
2018-09-28T09:53:32.050Z,5.80
2018-09-28T09:55:59.968Z,6.63
2018-09-28T09:58:27.902Z,6.70
2018-09-28T10:01:01.294Z,5.97
2018-09-28T10:03:34.505Z,4.97
2018-09-28T10:06:02.374Z,8.90
2018-09-28T10:08:30.178Z,5.57
2018-09-28T10:10:58.008Z,5.83
2018-09-28T10:13:25.874Z,4.90
2018-09-28T10:15:53.796Z,6.83
2018-09-28T10:18:21.683Z,5.40
2018-09-28T10:20:49.589Z,5.83
2018-09-28T10:23:17.369Z,5.80
2018-09-28T10:25:45.185Z,5.87
2018-09-28T10:28:13.116Z,7.50
2018-09-28T10:30:40.951Z,5.37
2018-09-28T10:33:08.784Z,5.60
2018-09-28T10:35:36.656Z,5.93
2018-09-28T10:38:04.495Z,5.63
2018-09-28T10:40:32.442Z,6.40
2018-09-28T10:43:00.299Z,6.63
2018-09-28T10:45:28.151Z,4.60
2018-09-28T10:47:56.070Z,4.00
2018-09-28T10:50:23.854Z,7.37
2018-09-28T10:52:51.737Z,6.67
2018-09-28T10:55:19.450Z,6.90
2018-09-28T10:57:47.455Z,6.03
2018-09-28T11:00:15.248Z,5.13
2018-09-28T11:02:42.981Z,5.63
2018-09-28T11:05:10.746Z,6.27
2018-09-28T11:07:38.520Z,3.73
2018-09-28T11:10:06.415Z,4.53
2018-09-28T11:12:34.157Z,7.00
2018-09-28T11:15:01.942Z,4.70
2018-09-28T11:17:29.770Z,5.27
2018-09-28T11:19:57.543Z,7.07
2018-09-28T11:22:25.298Z,5.57
2018-09-28T11:24:53.139Z,5.43
2018-09-28T11:27:20.958Z,4.77
2018-09-28T11:29:48.740Z,8.80
2018-09-28T11:32:16.578Z,4.83
2018-09-28T11:34:44.381Z,6.07
2018-09-28T11:37:12.211Z,4.40
2018-09-28T11:39:40.064Z,5.30
2018-09-28T11:42:08.090Z,6.33
2018-09-28T11:44:35.839Z,4.77
2018-09-28T11:47:03.622Z,5.90
2018-09-28T11:49:31.428Z,6.43
2018-09-28T11:51:59.247Z,4.47
2018-09-28T11:54:27.057Z,5.17
2018-09-28T11:56:54.826Z,4.60
2018-09-28T11:59:22.565Z,4.30
2018-09-28T12:01:50.444Z,4.20
2018-09-28T12:04:18.261Z,5.93
2018-09-28T12:06:46.075Z,4.00
2018-09-28T12:09:13.894Z,5.10
2018-09-28T12:11:42.366Z,5.03
2018-09-28T12:14:10.200Z,6.37
2018-09-28T12:16:37.928Z,6.40
2018-09-28T12:19:05.828Z,5.60
2018-09-28T12:21:33.694Z,5.60
2018-09-28T12:24:01.527Z,7.50
2018-09-28T12:26:29.556Z,5.33
2018-09-28T12:28:57.400Z,5.93
2018-09-28T12:31:25.169Z,5.83
2018-09-28T12:33:53.011Z,4.90
2018-09-28T12:36:21.072Z,3.97
2018-09-28T12:38:48.829Z,7.43
2018-09-28T12:41:16.661Z,5.57
2018-09-28T12:43:44.462Z,5.80
2018-09-28T12:46:12.272Z,7.47
2018-09-28T12:48:40.148Z,7.27
2018-09-28T12:51:07.960Z,4.97
2018-09-28T12:53:35.821Z,4.50
2018-09-28T12:56:03.662Z,3.70
2018-09-28T12:58:31.446Z,5.57
2018-09-28T13:00:59.334Z,5.53
2018-09-28T13:03:27.132Z,7.20
2018-09-28T13:05:54.966Z,6.23
2018-09-28T13:08:22.788Z,4.30
2018-09-28T13:10:50.712Z,7.40
2018-09-28T13:13:18.563Z,5.87
2018-09-28T13:15:46.822Z,5.37
2018-09-28T13:18:14.838Z,5.67
2018-09-28T13:20:42.782Z,5.37
2018-09-28T13:23:10.511Z,5.30
2018-09-28T13:25:38.399Z,4.77
2018-09-28T13:28:06.215Z,4.77
2018-09-28T13:30:34.102Z,5.93
2018-09-28T13:33:02.020Z,4.67
2018-09-28T13:35:29.877Z,4.60
2018-09-28T13:37:57.695Z,5.93
2018-09-28T13:40:25.546Z,4.93
2018-09-28T13:42:53.355Z,6.23
2018-09-28T13:45:21.217Z,5.47
2018-09-28T13:47:49.048Z,5.63
2018-09-28T13:50:16.924Z,4.57
2018-09-28T13:52:44.739Z,4.50
2018-09-28T13:55:12.580Z,7.10
2018-09-28T13:57:40.396Z,4.83
2018-09-28T14:00:08.473Z,5.20
2018-09-28T14:02:36.343Z,7.03
2018-09-28T14:05:04.226Z,4.53
2018-09-28T14:07:32.009Z,5.80
2018-09-28T14:09:59.852Z,6.47
2018-09-28T14:12:27.653Z,8.13
2018-09-28T14:14:55.440Z,9.20
2018-09-28T14:17:23.275Z,4.77
2018-09-28T14:19:51.035Z,5.87
2018-09-28T14:22:18.839Z,3.58
2018-09-28T14:24:46.707Z,6.03
2018-09-28T14:27:14.512Z,5.43
2018-09-28T14:29:42.235Z,5.83
2018-09-28T14:32:10.226Z,4.60
2018-09-28T14:34:38.010Z,3.43
2018-09-28T14:37:05.928Z,4.60
2018-09-28T14:39:33.815Z,7.47
2018-09-28T14:42:01.677Z,3.93
2018-09-28T14:44:29.509Z,4.57
2018-09-28T14:46:57.397Z,3.50
2018-09-28T14:49:25.155Z,5.47
2018-09-28T14:51:52.935Z,7.10
2018-09-28T14:54:20.833Z,6.27
2018-09-28T14:56:48.750Z,4.43
2018-09-28T14:59:16.475Z,4.13
2018-09-28T15:01:44.334Z,5.00
2018-09-28T15:04:12.151Z,3.87
2018-09-28T15:06:39.973Z,6.07
2018-09-28T15:09:07.816Z,4.53
2018-09-28T15:11:35.718Z,4.50
2018-09-28T15:14:03.483Z,9.43
2018-09-28T15:16:31.357Z,6.33
2018-09-28T15:18:59.103Z,6.07
2018-09-28T15:21:26.888Z,4.83
2018-09-28T15:23:54.686Z,8.63
2018-09-28T15:26:22.503Z,5.93
2018-09-28T15:28:50.323Z,9.17
2018-09-28T15:31:18.168Z,5.43
2018-09-28T15:33:45.900Z,7.97
2018-09-28T15:36:13.695Z,8.37
2018-09-28T15:38:42.023Z,6.10
2018-09-28T15:41:09.848Z,8.70
2018-09-28T15:43:37.998Z,8.90
2018-09-28T15:46:05.910Z,6.40
2018-09-28T15:48:33.780Z,9.63
2018-09-28T15:51:01.587Z,5.90
2018-09-28T15:53:29.443Z,9.07
2018-09-28T15:55:57.222Z,7.20
2018-09-28T15:58:24.947Z,6.97
2018-09-28T16:00:53.164Z,9.63
2018-09-28T16:03:20.927Z,6.20
2018-09-28T16:05:48.834Z,8.87
2018-09-28T16:08:16.723Z,10.37
2018-09-28T16:10:45.382Z,9.30
2018-09-28T16:13:13.099Z,8.00
2018-09-28T16:15:40.888Z,12.53
2018-09-28T16:18:08.615Z,10.50
2018-09-28T16:20:36.378Z,15.40
2018-09-28T16:23:04.208Z,9.35
2018-09-28T16:25:32.016Z,7.60
2018-09-28T16:27:59.820Z,7.20
2018-09-28T16:30:27.657Z,9.43
2018-09-28T16:32:55.407Z,9.33
2018-09-28T16:35:23.151Z,7.17
2018-09-28T16:37:50.936Z,11.27
2018-09-28T16:40:18.681Z,16.43
2018-09-28T16:42:46.375Z,14.97
2018-09-28T16:45:14.265Z,16.30
2018-09-28T16:47:42.067Z,12.33
2018-09-28T16:50:09.971Z,9.90
2018-09-28T16:52:37.866Z,10.63
2018-09-28T16:55:05.644Z,6.87
2018-09-28T16:57:33.459Z,8.23
2018-09-28T17:00:01.308Z,9.17
2018-09-28T17:02:29.088Z,8.03
2018-09-28T17:04:56.907Z,13.33
2018-09-28T17:07:24.735Z,13.43
2018-09-28T17:09:52.459Z,11.90
2018-09-28T17:12:20.296Z,14.87
2018-09-28T17:14:48.159Z,16.60
2018-09-28T17:17:15.952Z,11.40
2018-09-28T17:19:43.687Z,9.60
2018-09-28T17:22:11.486Z,9.17
2018-09-28T17:24:39.239Z,9.67
2018-09-28T17:27:07.092Z,12.10
2018-09-28T17:29:34.852Z,11.03
2018-09-28T17:32:02.600Z,12.80
2018-09-28T17:34:30.360Z,6.20
2018-09-28T17:36:58.124Z,8.67
2018-09-28T17:39:25.866Z,6.77
2018-09-28T17:41:53.643Z,7.20
2018-09-28T17:44:21.472Z,8.10
2018-09-28T17:46:49.312Z,25.17
2018-09-28T17:49:17.131Z,9.50
2018-09-28T17:51:45.055Z,8.10
2018-09-28T17:54:12.790Z,9.17
2018-09-28T17:56:40.571Z,8.77
2018-09-28T17:59:08.491Z,8.87
2018-09-28T18:01:36.236Z,7.70
2018-09-28T18:04:04.036Z,6.57
2018-09-28T18:06:31.855Z,7.97
2018-09-28T18:08:59.745Z,8.10
2018-09-28T18:11:27.532Z,10.37
2018-09-28T18:13:55.359Z,9.77
2018-09-28T18:16:23.117Z,12.83
2018-09-28T18:18:50.935Z,7.63
2018-09-28T18:21:18.792Z,8.63
2018-09-28T18:23:46.592Z,10.97
2018-09-28T18:26:14.331Z,11.43
2018-09-28T18:28:42.128Z,24.53
2018-09-28T18:31:09.879Z,8.47
2018-09-28T18:33:37.713Z,9.23
2018-09-28T18:36:05.494Z,9.20
2018-09-28T18:38:33.195Z,8.67
2018-09-28T18:41:00.935Z,5.90
2018-09-28T18:43:28.724Z,6.47
2018-09-28T18:45:56.463Z,5.77
2018-09-28T18:48:24.233Z,6.23
2018-09-28T18:50:52.043Z,5.60
2018-09-28T18:53:19.949Z,4.33
2018-09-28T18:55:47.731Z,6.30
2018-09-28T18:58:15.499Z,6.27
2018-09-28T19:00:43.259Z,5.87
2018-09-28T19:03:11.169Z,4.50
2018-09-28T19:05:38.902Z,4.57
2018-09-28T19:08:06.664Z,5.27
2018-09-28T19:10:34.480Z,4.37
2018-09-28T19:13:02.381Z,5.53
2018-09-28T19:15:30.091Z,5.57
2018-09-28T19:17:57.823Z,6.13
2018-09-28T19:20:25.663Z,5.63
2018-09-28T19:22:53.479Z,5.00
2018-09-28T19:25:21.247Z,4.73
2018-09-28T19:27:49.045Z,5.10
2018-09-28T19:30:16.739Z,6.10
2018-09-28T19:32:44.525Z,5.03
2018-09-28T19:35:12.348Z,5.53
2018-09-28T19:37:40.112Z,8.40
2018-09-28T19:40:07.903Z,4.97
2018-09-28T19:42:35.682Z,3.77
2018-09-28T19:45:03.477Z,4.60
2018-09-28T19:47:31.261Z,8.13
2018-09-28T19:49:59.027Z,7.57
2018-09-28T19:52:26.824Z,7.00
2018-09-28T19:54:54.700Z,7.97
2018-09-28T19:57:22.536Z,9.67
2018-09-28T19:59:50.332Z,8.63
2018-09-28T20:02:18.132Z,6.70
2018-09-28T20:04:45.925Z,8.77
2018-09-28T20:07:13.659Z,7.83
2018-09-28T20:09:41.499Z,6.67
2018-09-28T20:12:09.267Z,6.90
2018-09-28T20:14:37.070Z,9.07
2018-09-28T20:17:04.803Z,10.43
2018-09-28T20:19:32.599Z,9.17
2018-09-28T20:22:00.335Z,7.73
2018-09-28T20:24:28.063Z,9.60
2018-09-28T20:26:55.820Z,8.67
2018-09-28T20:29:23.623Z,10.70
2018-09-28T20:31:51.381Z,12.30
2018-09-28T20:34:19.182Z,9.93
2018-09-28T20:36:46.939Z,8.50
2018-09-28T20:39:14.700Z,9.07
2018-09-28T20:41:42.656Z,11.37
2018-09-28T20:44:10.408Z,10.57
2018-09-28T20:46:38.262Z,11.87
2018-09-28T20:49:06.679Z,11.20
2018-09-28T20:51:34.423Z,8.03
2018-09-28T20:54:02.139Z,5.97
2018-09-28T20:56:30.108Z,8.80
2018-09-28T20:58:57.860Z,10.30
2018-09-28T21:01:26.119Z,6.77
2018-09-28T21:03:53.923Z,6.10
2018-09-28T21:06:21.644Z,6.03
2018-09-28T21:08:49.412Z,3.70
2018-09-28T21:11:17.199Z,6.87
2018-09-28T21:13:44.988Z,5.23
2018-09-28T21:16:12.792Z,6.10
2018-09-28T21:18:40.576Z,6.10
2018-09-28T21:21:08.387Z,5.07
2018-09-28T21:23:36.179Z,9.67
2018-09-28T21:26:04.200Z,5.63
2018-09-28T21:28:31.967Z,5.80
2018-09-28T21:30:59.728Z,4.10
2018-09-28T21:33:27.511Z,10.23
2018-09-28T21:35:55.455Z,5.17
2018-09-28T21:38:23.253Z,3.80
2018-09-28T21:40:51.077Z,5.00
2018-09-28T21:43:18.922Z,5.57
2018-09-28T21:45:46.739Z,5.33
2018-09-28T21:48:14.514Z,7.03
2018-09-28T21:50:44.165Z,5.13
2018-09-28T21:53:12.608Z,3.70
2018-09-28T21:55:40.388Z,5.07
2018-09-28T21:58:08.255Z,3.63
2018-09-28T22:00:37.860Z,4.43
2018-09-28T22:03:06.857Z,4.93
2018-09-28T22:05:34.689Z,6.00
2018-09-28T22:08:02.647Z,4.20
2018-09-28T22:10:30.794Z,6.47
2018-09-28T22:12:58.534Z,4.70
2018-09-28T22:15:26.351Z,3.97
2018-09-28T22:17:54.230Z,7.97
2018-09-28T22:20:22.038Z,3.73
2018-09-28T22:22:49.848Z,3.70
2018-09-28T22:25:18.492Z,4.83
2018-09-28T22:27:46.316Z,5.20
2018-09-28T22:30:14.171Z,5.67
2018-09-28T22:32:42.002Z,3.83
2018-09-28T22:35:09.784Z,5.70
2018-09-28T22:37:37.500Z,4.60
2018-09-28T22:40:05.279Z,5.77
2018-09-28T22:42:33.058Z,6.13
2018-09-28T22:45:00.820Z,9.60
2018-09-28T22:47:29.114Z,6.30
2018-09-28T22:49:56.919Z,7.47
2018-09-28T22:52:24.687Z,5.03
2018-09-28T22:54:52.515Z,7.57
2018-09-28T22:57:20.255Z,8.20
2018-09-28T22:59:48.134Z,6.53
2018-09-28T23:02:15.935Z,6.33
2018-09-28T23:04:43.650Z,9.53
2018-09-28T23:07:11.431Z,5.83
2018-09-28T23:09:39.239Z,5.07
2018-09-28T23:12:07.040Z,5.33
2018-09-28T23:14:34.787Z,4.17
2018-09-28T23:17:02.636Z,5.33
2018-09-28T23:19:30.411Z,5.40
2018-09-28T23:21:58.163Z,5.17
2018-09-28T23:24:25.949Z,3.60
2018-09-28T23:26:53.731Z,4.57
2018-09-28T23:29:21.539Z,4.63
2018-09-28T23:31:49.270Z,4.40
2018-09-28T23:34:17.070Z,4.93
2018-09-28T23:36:44.784Z,6.47
2018-09-28T23:39:12.604Z,3.37
2018-09-28T23:41:40.700Z,5.47
2018-09-28T23:44:09.283Z,3.77
2018-09-28T23:46:37.214Z,7.83
2018-09-28T23:49:05.239Z,3.43
2018-09-28T23:51:32.974Z,3.73
2018-09-28T23:54:00.799Z,6.00
2018-09-28T23:56:28.579Z,5.97
2018-09-28T23:58:56.546Z,9.23
